Weather History for Clinton, MO

Change the Weather History Date:

Tuesday, May 21, 2013

  Actual Average (KSZL) Record (KSZL)
Temperature  
Mean Temperature 66 °F -  
Max Temperature 71 °F 74 °F 86 °F (2014)
Min Temperature 62 °F 54 °F 44 °F (2002)
Cooling Degree Days 2    
Growing Degree Days 16 (Base 50)    
Moisture  
Dew Point 59 °F    
Average Humidity 80    
Maximum Humidity 100    
Minimum Humidity 60    
Precipitation  
Precipitation 0.00 in - - ()
Sea Level Pressure  
Sea Level Pressure 29.76 in    
Wind  
Wind Speed 7 mph (SW)    
Max Wind Speed 13 mph    
Max Gust Speed 20 mph    
Visibility 10 miles    
Events      
Averages and records for this station are not official NWS values.
T = Trace of Precipitation, MM = Missing Value Source: NWS Daily Summary

Daily Weather History Graph

Daily Weather History Graph

Search for Another Location

Airport:

Trip Planner

Search our weather history database for the weather conditions in past years. The results will help you decide how hot, cold, wet, or windy it might be!

Date:

Astronomy

May. 21, 2013 Rise Set
Actual Time 5:58 AM CDT 8:24 PM CDT
Civil Twilight 5:28 AM CDT 8:54 PM CDT
Nautical Twilight 4:51 AM CDT 9:32 PM CDT
Astronomical Twilight 4:09 AM CDT 10:13 PM CDT
Moon 4:41 PM CDT (5/21) 3:23 AM CDT (5/21)
Length of Visible Light 15h 26m
Length of Day
14h 25m
Waxing Gibbous, 84% of the Moon is Illuminated
May 21
Waxing Gibbous
May 24
Full
May 31
Last Quarter
Jun 8
New
Jun 16
First Quarter

Hourly Weather History & Observations

Time (CDT) Temp. Dew Point Humidity Pressure Visibility Wind Dir Wind Speed Gust Speed Precip Events Conditions
12:15 AM 64.4 °F 62.6 °F 94% 29.73 in 10.0 mi SW 8.1 mph - N/A   Clear
12:35 AM 64.4 °F 62.6 °F 94% 29.74 in 10.0 mi SW 5.8 mph - N/A   Clear
12:55 AM 64.4 °F 62.6 °F 94% 29.74 in 10.0 mi SW 10.4 mph - N/A   Clear
1:15 AM 64.4 °F 62.6 °F 94% 29.74 in 10.0 mi SSW 8.1 mph - N/A   Clear
1:35 AM 64.4 °F 62.6 °F 94% 29.74 in 10.0 mi SSW 9.2 mph - N/A   Clear
1:55 AM 64.4 °F 62.6 °F 94% 29.73 in 10.0 mi SSW 10.4 mph - N/A   Clear
2:35 AM 64.4 °F 64.4 °F 100% 29.72 in 8.0 mi South 8.1 mph - N/A   Clear
2:55 AM 64.4 °F 64.4 °F 100% 29.71 in 7.0 mi SSW 8.1 mph - N/A   Clear
3:15 AM 64.4 °F 64.4 °F 100% 29.71 in 7.0 mi SSW 5.8 mph - N/A   Clear
3:35 AM 64.4 °F 64.4 °F 100% 29.74 in 5.0 mi West 8.1 mph - N/A   Clear
3:55 AM 64.4 °F 64.4 °F 100% 29.74 in 6.0 mi WSW 8.1 mph - N/A   Partly Cloudy
4:15 AM 64.4 °F 64.4 °F 100% 29.75 in 6.0 mi Calm Calm - N/A   Clear
4:35 AM 64.4 °F 62.6 °F 94% 29.77 in 7.0 mi WSW 5.8 mph - N/A   Clear
4:55 AM 62.6 °F 62.6 °F 100% 29.76 in 8.0 mi WSW 4.6 mph - N/A   Clear
5:15 AM 62.6 °F 60.8 °F 94% 29.76 in 10.0 mi WSW 6.9 mph - N/A   Clear
5:35 AM 62.6 °F 57.2 °F 82% 29.75 in 10.0 mi West 5.8 mph - N/A   Clear
5:55 AM 62.6 °F 57.2 °F 82% 29.76 in 10.0 mi SW 3.5 mph - N/A   Clear
6:15 AM 62.6 °F 57.2 °F 82% 29.78 in 10.0 mi SSW 4.6 mph - N/A   Clear
6:35 AM 62.6 °F 57.2 °F 82% 29.79 in 10.0 mi SW 5.8 mph - N/A   Clear
6:55 AM 62.6 °F 57.2 °F 82% 29.80 in 10.0 mi South 5.8 mph - N/A   Clear
7:15 AM 62.6 °F 57.2 °F 82% 29.80 in 10.0 mi SSW 3.5 mph - N/A   Clear
7:35 AM 62.6 °F 57.2 °F 82% 29.80 in 10.0 mi SW 5.8 mph - N/A   Clear
7:55 AM 62.6 °F 55.4 °F 77% 29.81 in 10.0 mi SW 5.8 mph - N/A   Clear
8:15 AM 64.4 °F 55.4 °F 73% 29.81 in 10.0 mi SW 6.9 mph - N/A   Clear
8:35 AM 64.4 °F 55.4 °F 73% 29.82 in 10.0 mi SW 6.9 mph - N/A   Clear
8:55 AM 64.4 °F 55.4 °F 73% 29.82 in 10.0 mi SW 8.1 mph - N/A   Clear
9:15 AM 66.2 °F 55.4 °F 68% 29.82 in 10.0 mi SW 8.1 mph - N/A   Clear
9:35 AM 66.2 °F 57.2 °F 73% 29.81 in 10.0 mi SW 5.8 mph - N/A   Clear
9:55 AM 66.2 °F 57.2 °F 73% 29.80 in 10.0 mi WSW 9.2 mph - N/A   Clear
10:15 AM 66.2 °F 57.2 °F 73% 29.79 in 10.0 mi West 6.9 mph - N/A   Clear
10:35 AM 66.2 °F 57.2 °F 73% 29.80 in 10.0 mi WSW 9.2 mph - N/A   Clear
10:55 AM 66.2 °F 57.2 °F 73% 29.81 in 10.0 mi West 9.2 mph - N/A   Clear
11:15 AM 66.2 °F 57.2 °F 73% 29.81 in 10.0 mi WSW 5.8 mph - N/A   Clear
11:35 AM 66.2 °F 57.2 °F 73% 29.82 in 10.0 mi SW 6.9 mph - N/A   Clear
11:55 AM 66.2 °F 57.2 °F 73% 29.82 in 10.0 mi SW 8.1 mph - N/A   Clear
12:15 PM 66.2 °F 57.2 °F 73% 29.80 in 10.0 mi SW 5.8 mph - N/A   Clear
12:35 PM 66.2 °F 57.2 °F 73% 29.79 in 10.0 mi WSW 5.8 mph - N/A   Clear
12:55 PM 66.2 °F 57.2 °F 73% 29.79 in 10.0 mi WSW 8.1 mph - N/A   Partly Cloudy
1:15 PM 66.2 °F 59.0 °F 78% 29.79 in 10.0 mi SSW 6.9 mph - N/A   Partly Cloudy
1:35 PM 68.0 °F 59.0 °F 73% 29.79 in 10.0 mi SW 6.9 mph - N/A   Partly Cloudy
1:55 PM 66.2 °F 57.2 °F 73% 29.80 in 10.0 mi SSW 9.2 mph - N/A   Clear
2:15 PM 68.0 °F 57.2 °F 68% 29.79 in 10.0 mi SSW 9.2 mph - N/A   Partly Cloudy
2:35 PM 66.2 °F 57.2 °F 73% 29.80 in 10.0 mi SSW 10.4 mph - N/A   Partly Cloudy
2:55 PM 68.0 °F 59.0 °F 73% 29.79 in 10.0 mi SW 10.4 mph - N/A   Partly Cloudy
3:15 PM 68.0 °F 59.0 °F 73% 29.79 in 10.0 mi SW 6.9 mph - N/A   Partly Cloudy
3:35 PM 68.0 °F 59.0 °F 73% 29.79 in 10.0 mi SW 8.1 mph - N/A   Clear
3:55 PM 69.8 °F 59.0 °F 68% 29.78 in 10.0 mi SSW 10.4 mph - N/A   Clear
4:15 PM 71.6 °F 59.0 °F 64% 29.77 in 10.0 mi WSW 9.2 mph 16.1 mph N/A   Clear
4:35 PM 69.8 °F 59.0 °F 68% 29.78 in 10.0 mi WSW 12.7 mph - N/A   Clear
4:55 PM 71.6 °F 57.2 °F 60% 29.76 in 10.0 mi SW 11.5 mph - N/A   Clear
5:15 PM 71.6 °F 59.0 °F 64% 29.76 in 10.0 mi SW 11.5 mph 19.6 mph N/A   Clear
5:35 PM 69.8 °F 57.2 °F 64% 29.75 in 10.0 mi SSW 6.9 mph - N/A   Clear
5:55 PM 69.8 °F 57.2 °F 64% 29.74 in 10.0 mi SW 9.2 mph - N/A   Clear
6:15 PM 69.8 °F 57.2 °F 64% 29.73 in 10.0 mi South 5.8 mph - N/A   Clear
6:35 PM 68.0 °F 57.2 °F 68% 29.72 in 10.0 mi SSW 4.6 mph - N/A   Clear
6:55 PM 68.0 °F 57.2 °F 68% 29.72 in 10.0 mi Calm Calm - N/A   Clear
7:15 PM 68.0 °F 59.0 °F 73% 29.72 in 10.0 mi Calm Calm - N/A   Clear
7:35 PM 66.2 °F 59.0 °F 78% 29.70 in 10.0 mi Calm Calm - N/A   Clear
7:55 PM 66.2 °F 60.8 °F 83% 29.71 in 10.0 mi Calm Calm - N/A   Clear
8:15 PM 66.2 °F 59.0 °F 78% 29.70 in 10.0 mi Calm Calm - N/A   Clear
8:35 PM 64.4 °F 60.8 °F 88% 29.71 in 10.0 mi Calm Calm - N/A   Clear
8:55 PM 64.4 °F 60.8 °F 88% 29.70 in 10.0 mi Calm Calm - N/A   Clear
9:15 PM 62.6 °F 59.0 °F 88% 29.72 in 10.0 mi Calm Calm - N/A   Clear
9:35 PM 62.6 °F 59.0 °F 88% 29.72 in 10.0 mi Calm Calm - N/A   Clear
9:55 PM 62.6 °F 59.0 °F 88% 29.73 in 10.0 mi Calm Calm - N/A   Clear
10:15 PM 62.6 °F 59.0 °F 88% 29.75 in 10.0 mi SSW 4.6 mph - N/A   Clear
10:35 PM 62.6 °F 59.0 °F 88% 29.76 in 10.0 mi SSW 5.8 mph - N/A   Clear
10:55 PM 62.6 °F 57.2 °F 82% 29.76 in 10.0 mi SSW 3.5 mph - N/A   Clear
11:35 PM 62.6 °F 59.0 °F 88% 29.76 in 10.0 mi SW 5.8 mph - N/A   Partly Cloudy
11:55 PM 62.6 °F 59.0 °F 88% 29.77 in 10.0 mi SW 4.6 mph - N/A   Mostly Cloudy